createdAt,value
2023-04-18T00:02:04.648Z,55.70
2023-04-18T00:04:34.061Z,55.70
2023-04-18T00:07:03.837Z,55.70
2023-04-18T00:09:32.046Z,55.70
2023-04-18T00:12:01.646Z,55.60
2023-04-18T00:14:30.171Z,55.60
2023-04-18T00:16:58.457Z,55.60
2023-04-18T00:19:26.797Z,55.60
2023-04-18T00:21:55.970Z,55.60
2023-04-18T00:24:25.498Z,55.60
2023-04-18T00:26:53.680Z,55.60
2023-04-18T00:29:21.965Z,55.60
2023-04-18T00:31:50.212Z,55.60
2023-04-18T00:34:18.407Z,55.60
2023-04-18T00:36:46.957Z,55.60
2023-04-18T00:39:15.147Z,55.60
2023-04-18T00:41:45.891Z,55.60
2023-04-18T00:44:14.275Z,55.60
2023-04-18T00:46:42.920Z,55.60
2023-04-18T00:49:11.914Z,55.60
2023-04-18T00:51:40.834Z,55.60
2023-04-18T00:54:09.412Z,55.60
2023-04-18T00:56:37.706Z,55.50
2023-04-18T00:59:08.073Z,55.60
2023-04-18T01:01:36.745Z,55.50
2023-04-18T01:04:05.611Z,55.50
2023-04-18T01:06:35.048Z,55.50
2023-04-18T01:09:05.226Z,55.50
2023-04-18T01:11:33.450Z,55.60
2023-04-18T01:14:02.517Z,55.50
2023-04-18T01:16:33.846Z,55.50
2023-04-18T01:19:02.623Z,55.50
2023-04-18T01:21:31.526Z,55.60
2023-04-18T01:24:04.212Z,55.50
2023-04-18T01:26:33.800Z,55.50
2023-04-18T01:29:04.929Z,55.60
2023-04-18T01:31:36.387Z,55.50
2023-04-18T01:34:05.048Z,55.50
2023-04-18T01:36:33.778Z,55.50
2023-04-18T01:39:02.459Z,55.50
2023-04-18T01:41:32.817Z,55.50
2023-04-18T01:44:02.993Z,55.50
2023-04-18T01:46:31.518Z,55.50
2023-04-18T01:49:02.728Z,55.50
2023-04-18T01:51:31.338Z,55.50
2023-04-18T01:53:59.741Z,55.50
2023-04-18T01:56:27.980Z,55.50
2023-04-18T01:58:58.917Z,55.50
2023-04-18T02:01:28.637Z,55.50
2023-04-18T02:03:59.872Z,55.50
2023-04-18T02:06:28.178Z,55.50
2023-04-18T02:08:56.386Z,55.50
2023-04-18T02:11:26.510Z,55.50
2023-04-18T02:13:54.841Z,55.50
2023-04-18T02:16:23.146Z,55.50
2023-04-18T02:18:53.571Z,55.50
2023-04-18T02:21:22.755Z,55.50
2023-04-18T02:23:51.097Z,55.50
2023-04-18T02:26:19.427Z,55.50
2023-04-18T02:28:47.769Z,55.50
2023-04-18T02:31:16.451Z,55.50
2023-04-18T02:33:46.596Z,55.50
2023-04-18T02:36:16.719Z,55.50
2023-04-18T02:38:45.572Z,55.50
2023-04-18T02:41:17.378Z,55.50
2023-04-18T02:43:45.606Z,55.50
2023-04-18T02:46:15.866Z,55.50
2023-04-18T02:48:46.589Z,55.50
2023-04-18T02:51:19.923Z,55.50
2023-04-18T02:53:48.389Z,55.50
2023-04-18T02:56:18.056Z,55.50
2023-04-18T02:59:24.649Z,55.50
2023-04-18T03:02:06.171Z,55.50
2023-04-18T03:04:36.079Z,55.50
2023-04-18T03:07:08.417Z,55.50
2023-04-18T03:09:39.206Z,55.50
2023-04-18T03:12:17.022Z,55.50
2023-04-18T03:14:45.749Z,55.50
2023-04-18T03:17:15.368Z,55.50
2023-04-18T03:19:48.628Z,55.50
2023-04-18T03:22:20.705Z,55.50
2023-04-18T03:24:57.482Z,55.50
2023-04-18T03:27:40.573Z,55.60
2023-04-18T03:30:10.110Z,55.60
2023-04-18T03:32:42.117Z,55.60
2023-04-18T03:35:11.144Z,55.60
2023-04-18T03:37:41.015Z,55.60
2023-04-18T03:40:11.937Z,55.60
2023-04-18T03:42:41.896Z,55.60
2023-04-18T03:45:12.448Z,55.60
2023-04-18T03:47:40.995Z,55.60
2023-04-18T03:50:09.925Z,55.60
2023-04-18T03:52:38.307Z,55.60
2023-04-18T03:55:09.206Z,55.60
2023-04-18T03:57:37.340Z,55.60
2023-04-18T04:00:12.432Z,55.60
2023-04-18T04:02:49.839Z,55.60
2023-04-18T04:05:21.907Z,55.50
2023-04-18T04:07:51.554Z,55.50
2023-04-18T04:10:21.544Z,55.50
2023-04-18T04:12:50.909Z,55.50
2023-04-18T04:15:19.800Z,55.40
2023-04-18T04:17:53.736Z,55.40
2023-04-18T04:20:24.794Z,55.30
2023-04-18T04:23:01.225Z,55.20
2023-04-18T04:25:33.297Z,55.10
2023-04-18T04:28:06.710Z,55.10
2023-04-18T04:30:43.982Z,55.00
2023-04-18T04:33:12.396Z,55.00
2023-04-18T04:35:41.799Z,54.90
2023-04-18T04:38:12.398Z,54.90
2023-04-18T04:40:47.711Z,54.90
2023-04-18T04:43:16.524Z,54.90
2023-04-18T04:45:46.540Z,54.90
2023-04-18T04:48:14.798Z,54.90
2023-04-18T04:50:51.881Z,54.90
2023-04-18T04:53:20.415Z,54.90
2023-04-18T04:55:50.218Z,54.90
2023-04-18T04:58:19.205Z,55.00
2023-04-18T05:01:07.719Z,55.00
2023-04-18T05:03:36.648Z,55.10
2023-04-18T05:06:06.377Z,55.20
2023-04-18T05:08:34.547Z,55.30
2023-04-18T05:11:04.891Z,55.40
2023-04-18T05:13:33.034Z,55.40
2023-04-18T05:16:01.201Z,55.60
2023-04-18T05:18:29.505Z,55.70
2023-04-18T05:20:57.644Z,55.80
2023-04-18T05:23:25.917Z,56.00
2023-04-18T05:25:54.073Z,56.10
2023-04-18T05:28:26.598Z,56.20
2023-04-18T05:31:01.270Z,56.20
2023-04-18T05:33:30.166Z,56.30
2023-04-18T05:35:59.091Z,56.30
2023-04-18T05:38:27.341Z,56.30
2023-04-18T05:40:56.051Z,56.20
2023-04-18T05:43:25.620Z,56.20
2023-04-18T05:45:54.782Z,56.20
2023-04-18T05:48:26.221Z,56.20
2023-04-18T05:50:54.351Z,56.20
2023-04-18T05:53:22.566Z,56.20
2023-04-18T05:55:50.922Z,56.20
2023-04-18T05:58:19.064Z,56.20
2023-04-18T06:00:48.568Z,56.30
2023-04-18T06:03:17.135Z,56.50
2023-04-18T06:05:45.782Z,56.60
2023-04-18T06:08:14.127Z,56.80
2023-04-18T06:10:42.290Z,57.10
2023-04-18T06:13:10.508Z,57.30
2023-04-18T06:15:38.744Z,57.50
2023-04-18T06:18:08.603Z,57.70
2023-04-18T06:20:36.821Z,58.00
2023-04-18T06:23:04.944Z,58.00
2023-04-18T06:25:33.052Z,58.00
2023-04-18T06:28:01.201Z,58.10
2023-04-18T06:30:29.382Z,58.10
2023-04-18T06:32:57.601Z,58.10
2023-04-18T06:35:27.362Z,58.10
2023-04-18T06:37:55.606Z,58.20
2023-04-18T06:40:24.129Z,58.20
2023-04-18T06:42:52.289Z,58.20
2023-04-18T06:45:20.474Z,58.20
2023-04-18T06:47:49.279Z,58.30
2023-04-18T06:50:18.531Z,58.30
2023-04-18T06:52:48.122Z,58.20
2023-04-18T06:55:16.301Z,58.20
2023-04-18T06:57:44.813Z,58.20
2023-04-18T07:00:14.160Z,58.20
2023-04-18T07:02:42.539Z,58.10
2023-04-18T07:05:11.038Z,58.10
2023-04-18T07:07:39.184Z,58.10
2023-04-18T07:10:11.444Z,58.00
2023-04-18T07:12:39.774Z,58.10
2023-04-18T07:15:08.994Z,58.10
2023-04-18T07:17:37.216Z,58.10
2023-04-18T07:20:06.116Z,58.10
2023-04-18T07:22:34.192Z,58.00
2023-04-18T07:25:02.346Z,58.00
2023-04-18T07:27:31.877Z,58.00
2023-04-18T07:30:00.052Z,58.10
2023-04-18T07:32:28.303Z,58.00
2023-04-18T07:34:57.261Z,57.90
2023-04-18T07:37:26.132Z,57.90
2023-04-18T07:39:54.397Z,57.90
2023-04-18T07:42:22.528Z,57.90
2023-04-18T07:44:57.233Z,57.80
2023-04-18T07:47:26.886Z,57.80
2023-04-18T07:49:56.783Z,57.60
2023-04-18T07:52:25.071Z,57.60
2023-04-18T07:54:53.221Z,57.60
2023-04-18T07:57:21.724Z,57.50
2023-04-18T07:59:53.760Z,57.50
2023-04-18T08:02:22.311Z,57.40
2023-04-18T08:04:52.319Z,57.40
2023-04-18T08:07:20.716Z,57.40
2023-04-18T08:09:48.931Z,57.30
2023-04-18T08:12:17.116Z,57.30
2023-04-18T08:14:45.224Z,57.30
2023-04-18T08:17:14.716Z,57.20
2023-04-18T08:19:44.438Z,57.20
2023-04-18T08:22:12.997Z,57.20
2023-04-18T08:24:46.454Z,57.20
2023-04-18T08:27:19.488Z,57.10
2023-04-18T08:29:47.636Z,57.00
2023-04-18T08:32:17.178Z,57.00
2023-04-18T08:34:46.858Z,57.00
2023-04-18T08:37:15.802Z,57.00
2023-04-18T08:39:44.862Z,56.90
2023-04-18T08:42:17.110Z,56.90
2023-04-18T08:44:45.645Z,56.90
2023-04-18T08:47:13.795Z,56.90
2023-04-18T08:49:43.875Z,56.90
2023-04-18T08:52:14.144Z,56.90
2023-04-18T08:54:44.063Z,56.80
2023-04-18T08:57:13.765Z,56.80
2023-04-18T08:59:43.165Z,56.80
2023-04-18T09:02:12.773Z,56.80
2023-04-18T09:04:45.319Z,56.80
2023-04-18T09:07:15.757Z,56.70
2023-04-18T09:09:48.632Z,56.80
2023-04-18T09:12:22.487Z,56.70
2023-04-18T09:14:51.992Z,56.60
2023-04-18T09:17:33.856Z,56.50
2023-04-18T09:20:06.102Z,56.60
2023-04-18T09:22:50.573Z,56.60
2023-04-18T09:25:30.213Z,56.60
2023-04-18T09:28:01.071Z,56.70
2023-04-18T09:30:39.599Z,56.70
2023-04-18T09:33:10.055Z,56.80
2023-04-18T09:35:40.252Z,56.80
2023-04-18T09:38:09.358Z,56.80
2023-04-18T09:40:37.734Z,56.70
2023-04-18T09:43:19.510Z,56.70
2023-04-18T09:45:48.847Z,56.70
2023-04-18T09:48:17.058Z,56.60
2023-04-18T09:50:48.630Z,56.60
2023-04-18T09:53:20.920Z,56.60
2023-04-18T09:55:52.371Z,56.50
2023-04-18T09:58:22.863Z,56.50
2023-04-18T10:00:52.440Z,56.50
2023-04-18T10:03:21.075Z,56.40
2023-04-18T10:09:50.726Z,56.40
2023-04-18T10:12:19.221Z,56.40
2023-04-18T10:14:48.115Z,56.40
2023-04-18T10:17:16.558Z,56.40
2023-04-18T10:19:46.237Z,56.40
2023-04-18T10:22:14.576Z,56.30
2023-04-18T10:24:53.081Z,56.30
2023-04-18T10:27:37.427Z,56.20
2023-04-18T10:30:08.024Z,56.30
2023-04-18T10:32:37.174Z,56.20
2023-04-18T10:35:06.408Z,56.20
2023-04-18T10:37:34.970Z,56.10
2023-04-18T10:40:06.084Z,56.10
2023-04-18T10:42:59.727Z,56.10
2023-04-18T10:45:30.964Z,56.10
2023-04-18T10:48:23.918Z,56.10
2023-04-18T10:51:14.941Z,56.00
2023-04-18T10:53:49.569Z,55.90
2023-04-18T10:56:19.231Z,55.90
2023-04-18T10:58:51.608Z,55.90
2023-04-18T11:01:31.036Z,55.80
2023-04-18T11:04:01.295Z,55.80
2023-04-18T11:06:31.244Z,55.80
2023-04-18T11:09:12.446Z,55.80
2023-04-18T11:11:42.548Z,55.70
2023-04-18T11:14:10.919Z,55.80
2023-04-18T11:16:39.540Z,55.80
2023-04-18T11:19:23.347Z,55.80
2023-04-18T11:21:52.721Z,55.90
2023-04-18T11:24:24.801Z,55.90
2023-04-18T11:26:56.319Z,55.90
2023-04-18T11:29:24.764Z,55.80
2023-04-18T11:31:55.960Z,55.80
2023-04-18T11:34:30.442Z,55.70
2023-04-18T11:36:58.657Z,55.70
2023-04-18T11:39:26.904Z,55.60
2023-04-18T11:41:57.269Z,55.50
2023-04-18T11:44:25.915Z,55.50
2023-04-18T11:46:54.169Z,55.40
2023-04-18T11:49:28.912Z,55.40
2023-04-18T11:51:57.078Z,55.40
2023-04-18T11:54:38.645Z,55.40
2023-04-18T11:57:19.461Z,55.40
2023-04-18T11:59:50.509Z,55.30
2023-04-18T12:02:18.720Z,55.30
2023-04-18T12:04:54.985Z,55.30
2023-04-18T12:07:37.384Z,55.30
2023-04-18T12:10:07.761Z,55.30
2023-04-18T12:12:37.472Z,55.30
2023-04-18T12:15:09.377Z,55.30
2023-04-18T12:17:38.554Z,55.30
2023-04-18T12:20:09.957Z,55.30
2023-04-18T12:22:39.971Z,55.30
2023-04-18T12:25:20.012Z,55.20
2023-04-18T12:27:50.776Z,55.20
2023-04-18T12:30:20.108Z,55.20
2023-04-18T12:32:53.975Z,55.20
2023-04-18T12:35:23.187Z,55.20
2023-04-18T12:37:53.043Z,55.40
2023-04-18T12:40:22.892Z,55.60
2023-04-18T12:42:56.312Z,55.70
2023-04-18T12:45:25.307Z,55.90
2023-04-18T12:47:54.121Z,55.90
2023-04-18T12:50:23.717Z,56.00
2023-04-18T12:52:53.968Z,56.00
2023-04-18T12:55:22.734Z,56.00
2023-04-18T12:57:54.177Z,56.10
2023-04-18T13:00:24.834Z,56.10
2023-04-18T13:02:53.432Z,56.00
2023-04-18T13:05:24.515Z,56.00
2023-04-18T13:07:58.561Z,56.10
2023-04-18T13:10:33.361Z,56.00
2023-04-18T13:13:01.585Z,56.10
2023-04-18T13:15:31.076Z,56.10
2023-04-18T13:18:04.441Z,56.10
2023-04-18T13:20:33.183Z,56.10
2023-04-18T13:23:01.424Z,56.10
2023-04-18T13:25:29.708Z,56.10
2023-04-18T13:27:58.492Z,56.10
2023-04-18T13:30:26.973Z,56.20
2023-04-18T13:32:56.736Z,56.10
2023-04-18T13:35:25.007Z,56.20
2023-04-18T13:37:53.126Z,56.20
2023-04-18T13:40:21.371Z,56.20
2023-04-18T13:42:49.488Z,56.30
2023-04-18T13:45:17.659Z,56.30
2023-04-18T13:47:45.788Z,56.30
2023-04-18T13:50:15.300Z,56.30
2023-04-18T13:52:43.535Z,56.20
2023-04-18T13:55:12.495Z,56.30
2023-04-18T13:57:41.269Z,56.30
2023-04-18T14:00:14.017Z,56.20
2023-04-18T14:02:42.640Z,56.30
2023-04-18T14:05:11.439Z,56.30
2023-04-18T14:07:41.342Z,56.30
2023-04-18T14:10:10.426Z,56.40
2023-04-18T14:12:38.638Z,56.40
2023-04-18T14:15:08.035Z,56.40
2023-04-18T14:17:36.249Z,56.40
2023-04-18T14:20:05.944Z,56.40
2023-04-18T14:22:34.274Z,56.40
2023-04-18T14:25:04.003Z,56.40
2023-04-18T14:27:32.931Z,56.30
2023-04-18T14:30:01.238Z,56.50
2023-04-18T14:32:29.375Z,56.50
2023-04-18T14:34:58.821Z,56.50
2023-04-18T14:37:27.205Z,56.60
2023-04-18T14:39:55.981Z,56.50
2023-04-18T14:42:25.538Z,56.40
2023-04-18T14:44:53.709Z,56.50
2023-04-18T14:47:24.392Z,56.50
2023-04-18T14:49:52.896Z,56.50
2023-04-18T14:52:21.093Z,56.50
2023-04-18T14:54:49.791Z,56.60
2023-04-18T14:57:18.357Z,56.50
2023-04-18T14:59:48.513Z,56.50
2023-04-18T15:02:17.629Z,56.60
2023-04-18T15:04:46.123Z,56.60
2023-04-18T15:07:15.340Z,56.60
2023-04-18T15:09:44.289Z,56.50
2023-04-18T15:12:12.795Z,56.50
2023-04-18T15:14:41.927Z,56.50
2023-04-18T15:17:12.641Z,56.60
2023-04-18T15:19:41.110Z,56.60
2023-04-18T15:22:10.748Z,56.60
2023-04-18T15:24:38.910Z,56.60
2023-04-18T15:27:07.769Z,56.60
2023-04-18T15:29:35.926Z,56.70
2023-04-18T15:32:05.062Z,56.70
2023-04-18T15:34:35.426Z,56.70
2023-04-18T15:37:04.573Z,56.50
2023-04-18T15:39:32.685Z,55.50
2023-04-18T15:42:00.820Z,55.40
2023-04-18T15:44:31.348Z,55.30
2023-04-18T15:47:01.199Z,55.30
2023-04-18T15:49:29.623Z,55.30
2023-04-18T15:51:59.156Z,55.30
2023-04-18T15:54:27.553Z,55.20
2023-04-18T15:56:56.341Z,55.20
2023-04-18T15:59:24.706Z,55.20
2023-04-18T16:01:52.937Z,55.20
2023-04-18T16:04:22.136Z,55.30
2023-04-18T16:06:50.533Z,55.30
2023-04-18T16:09:20.062Z,55.30
2023-04-18T16:11:48.227Z,55.40
2023-04-18T16:14:16.572Z,55.40
2023-04-18T16:16:45.065Z,55.40
2023-04-18T16:19:14.253Z,55.50
2023-04-18T16:21:42.401Z,55.50
2023-04-18T16:24:10.575Z,55.50
2023-04-18T16:26:40.005Z,55.40
2023-04-18T16:29:08.242Z,55.30
2023-04-18T16:31:36.413Z,55.20
2023-04-18T16:34:04.565Z,55.20
2023-04-18T16:36:35.389Z,55.10
2023-04-18T16:39:04.674Z,55.10
2023-04-18T16:41:32.858Z,55.20
2023-04-18T16:44:02.372Z,55.20
2023-04-18T16:46:32.098Z,55.30
2023-04-18T16:49:01.562Z,55.30
2023-04-18T16:51:29.904Z,55.30
2023-04-18T16:53:58.119Z,55.40
2023-04-18T16:56:26.242Z,55.40
2023-04-18T16:58:54.362Z,55.50
2023-04-18T17:01:23.922Z,55.50
2023-04-18T17:03:52.123Z,55.60
2023-04-18T17:06:22.619Z,55.60
2023-04-18T17:08:53.451Z,55.60
2023-04-18T17:11:21.866Z,55.70
2023-04-18T17:13:51.241Z,55.70
2023-04-18T17:16:19.626Z,55.70
2023-04-18T17:18:49.231Z,55.70
2023-04-18T17:21:17.365Z,55.70
2023-04-18T17:23:45.661Z,55.70
2023-04-18T17:26:13.889Z,55.60
2023-04-18T17:28:42.323Z,55.70
2023-04-18T17:31:10.497Z,55.80
2023-04-18T17:33:38.660Z,55.80
2023-04-18T17:36:08.717Z,55.80
2023-04-18T17:38:36.946Z,55.80
2023-04-18T17:41:06.275Z,55.90
2023-04-18T17:43:34.451Z,55.80
2023-04-18T17:46:03.793Z,55.90
2023-04-18T17:48:32.037Z,55.90
2023-04-18T17:51:00.193Z,55.90
2023-04-18T17:53:32.040Z,55.90
2023-04-18T17:56:00.532Z,55.90
2023-04-18T17:58:29.059Z,55.90
2023-04-18T18:00:57.254Z,55.90
2023-04-18T18:03:25.589Z,55.90
2023-04-18T18:05:54.912Z,55.90
2023-04-18T18:08:23.302Z,55.90
2023-04-18T18:10:52.807Z,55.80
2023-04-18T18:13:20.975Z,55.90
2023-04-18T18:15:49.136Z,55.80
2023-04-18T18:18:29.713Z,55.90
2023-04-18T18:20:58.215Z,55.90
2023-04-18T18:23:26.742Z,55.80
2023-04-18T18:25:56.323Z,55.80
2023-04-18T18:28:24.491Z,55.90
2023-04-18T18:30:52.817Z,55.90
2023-04-18T18:33:20.976Z,55.90
2023-04-18T18:35:49.139Z,55.90
2023-04-18T18:38:17.319Z,55.90
2023-04-18T18:40:45.694Z,55.90
2023-04-18T18:43:15.150Z,56.00
2023-04-18T18:45:43.318Z,56.00
2023-04-18T18:48:11.653Z,56.10
2023-04-18T18:50:41.848Z,56.10
2023-04-18T18:53:10.243Z,56.10
2023-04-18T18:55:38.388Z,56.10
2023-04-18T18:58:08.410Z,56.10
2023-04-18T19:00:38.031Z,56.10
2023-04-18T19:03:06.353Z,56.10
2023-04-18T19:05:34.596Z,56.10
2023-04-18T19:08:04.349Z,56.10
2023-04-18T19:10:35.135Z,56.20
2023-04-18T19:13:03.600Z,56.20
2023-04-18T19:15:31.752Z,56.30
2023-04-18T19:18:01.509Z,56.40
2023-04-18T19:20:30.163Z,56.50
2023-04-18T19:22:58.308Z,56.60
2023-04-18T19:25:26.424Z,56.80
2023-04-18T19:27:54.606Z,57.00
2023-04-18T19:30:23.148Z,57.20
2023-04-18T19:32:51.656Z,57.30
2023-04-18T19:35:21.284Z,57.50
2023-04-18T19:37:49.508Z,57.50
2023-04-18T19:40:18.494Z,57.60
2023-04-18T19:42:48.125Z,57.60
2023-04-18T19:45:17.046Z,57.60
2023-04-18T19:47:47.573Z,57.60
2023-04-18T19:50:15.750Z,57.70
2023-04-18T19:52:45.647Z,57.70
2023-04-18T19:55:16.249Z,57.70
2023-04-18T19:57:45.337Z,57.70
2023-04-18T20:00:15.039Z,57.70
2023-04-18T20:02:44.410Z,57.70
2023-04-18T20:05:14.056Z,57.70
2023-04-18T20:07:42.631Z,57.70
2023-04-18T20:10:12.469Z,57.70
2023-04-18T20:12:41.236Z,57.60
2023-04-18T20:15:10.335Z,57.60
2023-04-18T20:17:38.647Z,57.50
2023-04-18T20:20:10.391Z,57.50
2023-04-18T20:22:40.355Z,57.50
2023-04-18T20:25:09.090Z,57.50
2023-04-18T20:27:38.915Z,57.40
2023-04-18T20:30:08.526Z,57.40
2023-04-18T20:32:36.866Z,57.40
2023-04-18T20:35:05.600Z,57.40
2023-04-18T20:37:37.310Z,57.40
2023-04-18T20:40:10.908Z,57.40
2023-04-18T20:42:41.288Z,57.30
2023-04-18T20:45:11.822Z,57.30
2023-04-18T20:47:42.240Z,57.40
2023-04-18T20:50:14.105Z,57.40
2023-04-18T20:52:43.834Z,57.40
2023-04-18T20:55:12.389Z,57.40
2023-04-18T20:57:42.688Z,57.40
2023-04-18T21:00:14.249Z,57.40
2023-04-18T21:02:43.520Z,57.40
2023-04-18T21:05:12.681Z,57.30
2023-04-18T21:07:42.998Z,57.30
2023-04-18T21:10:12.885Z,57.20
2023-04-18T21:12:43.423Z,57.20
2023-04-18T21:15:13.249Z,57.20
2023-04-18T21:17:42.392Z,57.20
2023-04-18T21:20:11.818Z,57.20
2023-04-18T21:22:40.672Z,57.10
2023-04-18T21:25:09.624Z,57.10
2023-04-18T21:27:37.775Z,57.10
2023-04-18T21:30:08.839Z,57.10
2023-04-18T21:32:36.962Z,57.10
2023-04-18T21:35:05.394Z,57.00
2023-04-18T21:37:33.470Z,57.00
2023-04-18T21:40:02.429Z,57.00
2023-04-18T21:42:30.737Z,56.90
2023-04-18T21:44:58.832Z,56.90
2023-04-18T21:47:28.303Z,56.90
2023-04-18T21:49:56.581Z,56.90
2023-04-18T21:52:24.698Z,56.90
2023-04-18T21:54:52.737Z,56.80
2023-04-18T21:57:20.805Z,56.80
2023-04-18T21:59:48.889Z,56.80
2023-04-18T22:02:17.118Z,56.80
2023-04-18T22:04:48.021Z,56.80
2023-04-18T22:07:18.526Z,56.80
2023-04-18T22:09:46.901Z,56.80
2023-04-18T22:12:15.776Z,56.80
2023-04-18T22:14:48.113Z,56.80
2023-04-18T22:17:16.255Z,56.80
2023-04-18T22:19:44.489Z,56.80
2023-04-18T22:22:14.109Z,56.80
2023-04-18T22:24:42.272Z,56.80
2023-04-18T22:27:10.374Z,56.80
2023-04-18T22:29:38.647Z,56.70
2023-04-18T22:32:07.073Z,56.70
2023-04-18T22:34:35.173Z,56.70
2023-04-18T22:37:03.238Z,56.70
2023-04-18T22:39:32.680Z,56.70
2023-04-18T22:42:00.977Z,56.70
2023-04-18T22:44:29.057Z,56.70
2023-04-18T22:46:57.098Z,56.70
2023-04-18T22:49:25.300Z,56.70
2023-04-18T22:51:54.430Z,56.70
2023-04-18T22:54:22.901Z,56.70
2023-04-18T22:56:52.648Z,56.70
2023-04-18T22:59:20.958Z,56.70
2023-04-18T23:01:49.080Z,56.70
2023-04-18T23:04:17.378Z,56.70
2023-04-18T23:06:45.669Z,56.70
2023-04-18T23:09:13.800Z,56.60
2023-04-18T23:11:41.845Z,56.60
2023-04-18T23:14:11.270Z,56.60
2023-04-18T23:16:40.126Z,56.60
2023-04-18T23:19:09.130Z,56.60
2023-04-18T23:21:37.392Z,56.60
2023-04-18T23:24:06.515Z,56.70
2023-04-18T23:26:34.631Z,56.70
2023-04-18T23:29:02.883Z,56.70
2023-04-18T23:31:32.894Z,56.70
2023-04-18T23:34:01.109Z,56.70
2023-04-18T23:36:29.727Z,56.70
2023-04-18T23:38:57.820Z,56.70
2023-04-18T23:41:25.912Z,56.70
2023-04-18T23:43:54.047Z,56.70
2023-04-18T23:46:22.166Z,56.70
2023-04-18T23:48:52.134Z,56.70
2023-04-18T23:51:20.269Z,56.70
2023-04-18T23:53:48.351Z,56.70
2023-04-18T23:56:16.462Z,56.70
2023-04-18T23:58:44.660Z,56.70
